Time;durP1;ratioP1;P1;durP2;ratioP2;P2;SDS_P1;SDS_P2;PMS_P1;PMS_P2;Temp;Humidity;BMP_temperature;BMP_pressure;BME280_temperature;BME280_humidity;BME280_pressure;Samples;Min_cycle;Max_cycle;Signal;HPM_P1;HPM_P2
2021/08/03 00:01:59;;;;;;;3.65;1.85;;;13.90;99.90;;;;;;5096500;28;20384;-67
2021/08/03 00:04:38;;;;;;;4.38;1.90;;;13.80;99.90;;;;;;5095836;28;20044;-67
2021/08/03 00:07:06;;;;;;;4.70;1.70;;;13.80;99.90;;;;;;5095783;28;20075;-67
2021/08/03 00:09:32;;;;;;;4.80;1.60;;;13.80;99.90;;;;;;5095593;28;20115;-66
2021/08/03 00:11:59;;;;;;;3.47;1.60;;;13.80;99.90;;;;;;5095843;28;20044;-67
2021/08/03 00:14:25;;;;;;;3.55;1.70;;;13.80;99.90;;;;;;5095962;28;20123;-67
2021/08/03 00:16:53;;;;;;;2.25;1.45;;;13.80;99.90;;;;;;5096145;28;20064;-67
2021/08/03 00:19:24;;;;;;;3.97;1.75;;;13.80;99.90;;;;;;5095222;28;20047;-66
2021/08/03 00:21:50;;;;;;;8.32;2.30;;;13.70;99.90;;;;;;5095663;28;20044;-67
2021/08/03 00:24:17;;;;;;;6.95;1.95;;;13.70;99.90;;;;;;5095385;28;20116;-67
2021/08/03 00:26:43;;;;;;;4.80;1.90;;;13.70;99.90;;;;;;5095456;28;20040;-67
2021/08/03 00:29:10;;;;;;;3.95;1.80;;;13.70;99.90;;;;;;5094000;28;20104;-67
2021/08/03 00:31:36;;;;;;;3.72;1.90;;;13.70;99.90;;;;;;5095801;28;20094;-66
2021/08/03 00:34:03;;;;;;;3.78;1.90;;;13.60;99.90;;;;;;5095975;28;20036;-66
2021/08/03 00:36:29;;;;;;;6.35;2.78;;;13.60;99.90;;;;;;5094002;28;20039;-67
2021/08/03 00:38:55;;;;;;;2.60;1.58;;;13.60;99.90;;;;;;5094852;28;20036;-66
2021/08/03 00:41:28;;;;;;;6.70;2.00;;;13.60;99.90;;;;;;5095598;28;20069;-67
2021/08/03 00:43:55;;;;;;;2.47;1.70;;;13.60;99.90;;;;;;5095132;28;20153;-67
2021/08/03 00:46:21;;;;;;;3.35;2.05;;;13.50;99.90;;;;;;5095694;28;20036;-67
2021/08/03 00:48:47;;;;;;;5.00;1.90;;;13.50;99.90;;;;;;5094615;28;20039;-67
2021/08/03 00:51:13;;;;;;;3.55;1.95;;;13.50;99.90;;;;;;5094848;28;20408;-67
2021/08/03 00:53:43;;;;;;;2.97;1.90;;;13.50;99.90;;;;;;5094960;28;20036;-67
2021/08/03 00:56:09;;;;;;;5.05;2.33;;;13.50;99.90;;;;;;5095133;28;20043;-67
2021/08/03 00:58:35;;;;;;;2.92;1.52;;;13.40;99.90;;;;;;5095101;28;20035;-67
2021/08/03 01:01:01;;;;;;;2.97;2.10;;;13.40;99.90;;;;;;5094553;28;20067;-67
2021/08/03 01:03:27;;;;;;;3.78;2.08;;;13.40;99.90;;;;;;5094700;28;20079;-67
2021/08/03 01:06:06;;;;;;;3.65;1.98;;;13.40;99.90;;;;;;5094671;28;20064;-67
2021/08/03 01:08:56;;;;;;;6.53;2.50;;;13.40;99.90;;;;;;5094660;28;20040;-66
2021/08/03 01:11:36;;;;;;;3.80;1.92;;;13.40;99.90;;;;;;5094023;28;20044;-67
2021/08/03 01:14:14;;;;;;;3.00;1.90;;;13.30;99.90;;;;;;5094635;28;20047;-67
2021/08/03 01:16:56;;;;;;;3.67;2.13;;;13.30;99.90;;;;;;5094464;28;20483;-67
2021/08/03 01:19:32;;;;;;;4.70;2.25;;;13.30;99.90;;;;;;5094173;28;20047;-66
2021/08/03 01:22:10;;;;;;;3.72;1.80;;;13.30;99.90;;;;;;5094925;28;20036;-67
2021/08/03 01:24:55;;;;;;;4.50;1.95;;;13.30;99.90;;;;;;5094528;28;20048;-67
2021/08/03 01:27:39;;;;;;;2.55;1.70;;;13.30;99.90;;;;;;5094326;28;20040;-67
2021/08/03 01:30:06;;;;;;;3.17;1.70;;;13.30;99.90;;;;;;5093493;28;20047;-66
2021/08/03 01:32:34;;;;;;;1.85;1.48;;;13.30;99.90;;;;;;5094065;28;20044;-67
2021/08/03 01:35:03;;;;;;;4.25;2.03;;;13.30;99.90;;;;;;5092998;28;20542;-67
2021/08/03 01:37:31;;;;;;;3.38;1.80;;;13.30;99.90;;;;;;5094154;28;20036;-67
2021/08/03 01:40:01;;;;;;;3.15;1.60;;;13.30;99.90;;;;;;5094090;28;20097;-67
2021/08/03 01:42:28;;;;;;;4.43;1.60;;;13.30;99.90;;;;;;5093707;28;20044;-67
2021/08/03 01:44:57;;;;;;;4.47;1.98;;;13.30;99.90;;;;;;5093843;28;20040;-67
2021/08/03 01:47:25;;;;;;;3.10;2.10;;;13.20;99.90;;;;;;5094270;28;20125;-67
2021/08/03 01:49:53;;;;;;;3.80;1.70;;;13.20;99.90;;;;;;5093854;28;20067;-67
2021/08/03 01:52:20;;;;;;;2.17;1.80;;;13.10;99.90;;;;;;5094184;28;20028;-67
2021/08/03 01:54:47;;;;;;;2.97;1.50;;;13.10;99.90;;;;;;5094074;28;20479;-67
2021/08/03 01:57:15;;;;;;;4.43;2.00;;;13.20;99.90;;;;;;5093642;28;20042;-67
2021/08/03 01:59:46;;;;;;;3.15;2.05;;;13.20;99.90;;;;;;5093335;28;20369;-67
2021/08/03 02:02:15;;;;;;;3.65;1.98;;;13.10;99.90;;;;;;5093621;28;20036;-67
2021/08/03 02:04:42;;;;;;;2.50;1.80;;;13.10;99.90;;;;;;5093913;28;20039;-67
2021/08/03 02:07:08;;;;;;;3.15;2.03;;;13.10;99.90;;;;;;5093585;28;20067;-67
2021/08/03 02:09:36;;;;;;;3.15;1.45;;;13.10;99.90;;;;;;5093198;28;20613;-66
2021/08/03 02:12:02;;;;;;;4.90;1.90;;;13.00;99.90;;;;;;5093615;28;20384;-67
2021/08/03 02:14:27;;;;;;;2.72;1.52;;;13.10;99.90;;;;;;5093569;28;20050;-67
2021/08/03 02:16:54;;;;;;;3.47;2.03;;;13.00;99.90;;;;;;5093915;28;20071;-67
2021/08/03 02:19:19;;;;;;;1.65;1.20;;;13.00;99.90;;;;;;5093146;28;20480;-66
2021/08/03 02:21:46;;;;;;;2.97;1.35;;;13.00;99.90;;;;;;5093895;28;20044;-67
2021/08/03 02:24:12;;;;;;;1.80;1.30;;;12.90;99.90;;;;;;5093585;28;20036;-67
2021/08/03 02:26:38;;;;;;;1.40;0.77;;;12.90;99.90;;;;;;5093937;28;20040;-67
2021/08/03 02:29:05;;;;;;;1.85;1.48;;;12.90;99.90;;;;;;5093331;28;20044;-66
2021/08/03 02:31:56;;;;;;;2.50;0.90;;;12.90;99.90;;;;;;5093519;28;20118;-67
2021/08/03 02:34:33;;;;;;;1.48;1.10;;;12.90;99.90;;;;;;5093572;28;20036;-67
2021/08/03 02:37:03;;;;;;;3.10;1.33;;;12.80;99.90;;;;;;5093957;28;20433;-67
2021/08/03 02:39:30;;;;;;;2.00;1.50;;;12.80;99.90;;;;;;5093375;28;20097;-66
2021/08/03 02:41:58;;;;;;;2.58;1.85;;;12.80;99.90;;;;;;5094364;28;20064;-67
2021/08/03 02:44:25;;;;;;;3.17;2.40;;;12.80;99.90;;;;;;5097560;28;20048;-67
2021/08/03 02:46:54;;;;;;;4.13;2.40;;;12.70;99.90;;;;;;5097507;28;20093;-67
2021/08/03 02:52:27;;;;;;;7.90;2.00;;;12.70;99.90;;;;;;5136384;27;20043;-67
2021/08/03 02:55:03;;;;;;;2.80;2.00;;;12.60;99.90;;;;;;5105140;27;20059;-67
2021/08/03 02:57:30;;;;;;;2.65;1.88;;;12.60;99.90;;;;;;5097145;28;20032;-67
2021/08/03 02:59:59;;;;;;;3.10;1.85;;;12.60;99.90;;;;;;5096924;28;20119;-67
2021/08/03 03:02:27;;;;;;;5.25;1.90;;;12.60;99.90;;;;;;5096999;28;20040;-67
2021/08/03 03:05:01;;;;;;;7.47;2.63;;;12.50;99.90;;;;;;5097226;28;20036;-67
2021/08/03 03:07:37;;;;;;;4.50;2.35;;;12.50;99.90;;;;;;5097583;28;20040;-67
2021/08/03 03:10:16;;;;;;;3.95;2.53;;;12.50;99.90;;;;;;5080182;28;20518;-67
2021/08/03 03:12:50;;;;;;;3.58;2.28;;;12.50;99.90;;;;;;5076597;28;20127;-67
2021/08/03 03:15:18;;;;;;;5.25;2.13;;;12.40;99.90;;;;;;5077122;28;20045;-67
2021/08/03 03:17:45;;;;;;;3.80;1.95;;;12.40;99.90;;;;;;5076703;28;20071;-67
2021/08/03 03:20:12;;;;;;;2.70;2.15;;;12.40;99.90;;;;;;5075457;28;20132;-66
2021/08/03 03:22:43;;;;;;;2.83;2.15;;;12.40;99.90;;;;;;5076406;28;20458;-67
2021/08/03 03:25:11;;;;;;;5.15;2.40;;;12.40;99.90;;;;;;5076715;28;20036;-67
2021/08/03 03:27:38;;;;;;;2.97;2.55;;;12.40;99.90;;;;;;5075247;28;20040;-66
2021/08/03 03:30:04;;;;;;;5.10;2.38;;;12.40;99.90;;;;;;5075966;28;20118;-66
2021/08/03 03:32:31;;;;;;;5.22;2.65;;;12.40;99.90;;;;;;5076909;28;20041;-67
2021/08/03 03:34:58;;;;;;;3.65;2.00;;;12.40;99.90;;;;;;5076339;28;20051;-67
2021/08/03 03:37:30;;;;;;;4.60;2.38;;;12.40;99.90;;;;;;5076230;28;20059;-67
2021/08/03 03:39:57;;;;;;;2.95;2.08;;;12.40;99.90;;;;;;5075851;28;20064;-66
2021/08/03 03:42:32;;;;;;;3.90;2.53;;;12.40;99.90;;;;;;5076240;28;20074;-67
2021/08/03 03:44:59;;;;;;;4.38;2.30;;;12.40;99.90;;;;;;5076521;28;20047;-67
2021/08/03 03:47:36;;;;;;;4.20;3.15;;;12.40;99.90;;;;;;5076501;28;20036;-67
2021/08/03 03:50:11;;;;;;;3.95;2.20;;;12.40;99.90;;;;;;5074689;28;20236;-67
2021/08/03 03:52:42;;;;;;;4.03;2.20;;;12.40;99.90;;;;;;5076057;28;20071;-67
2021/08/03 03:55:11;;;;;;;4.75;2.25;;;12.40;99.90;;;;;;5075196;28;20178;-67
2021/08/03 03:57:38;;;;;;;5.90;2.60;;;12.40;99.90;;;;;;5075922;28;20051;-67
2021/08/03 04:00:05;;;;;;;3.45;1.98;;;12.50;99.90;;;;;;5075406;28;20074;-67
2021/08/03 04:02:33;;;;;;;4.68;1.52;;;12.50;99.90;;;;;;5075817;28;20040;-67
2021/08/03 04:05:01;;;;;;;2.10;1.25;;;12.40;99.90;;;;;;5076257;28;20036;-67
2021/08/03 04:07:29;;;;;;;1.95;0.90;;;12.40;99.90;;;;;;5075576;28;20033;-67
2021/08/03 04:10:09;;;;;;;0.80;0.60;;;12.40;99.90;;;;;;5075717;28;20040;-66
2021/08/03 04:12:35;;;;;;;0.75;0.52;;;12.40;99.90;;;;;;5075347;28;20094;-68
2021/08/03 04:15:03;;;;;;;1.10;0.82;;;12.30;99.90;;;;;;5076118;28;20550;-67
2021/08/03 04:17:28;;;;;;;1.45;0.80;;;12.30;99.90;;;;;;5075379;28;20037;-66
2021/08/03 04:19:55;;;;;;;1.20;0.70;;;12.30;99.90;;;;;;5075260;28;20044;-67
2021/08/03 04:22:20;;;;;;;1.95;0.90;;;12.30;99.90;;;;;;5075695;28;20083;-67
2021/08/03 04:24:46;;;;;;;2.30;1.05;;;12.30;99.90;;;;;;5075471;28;20396;-67
2021/08/03 04:27:12;;;;;;;1.88;1.15;;;12.30;99.90;;;;;;5075176;28;20043;-67
2021/08/03 04:29:37;;;;;;;1.83;1.30;;;12.40;99.90;;;;;;5074918;28;20042;-67
2021/08/03 04:32:03;;;;;;;2.97;2.08;;;12.40;99.90;;;;;;5075011;28;20044;-67
2021/08/03 04:34:31;;;;;;;2.83;2.40;;;12.40;99.90;;;;;;5075396;28;20123;-67
2021/08/03 04:36:58;;;;;;;3.95;2.78;;;12.40;99.90;;;;;;5073906;28;20499;-67
2021/08/03 04:39:24;;;;;;;3.50;2.00;;;12.50;99.90;;;;;;5074841;28;20492;-67
2021/08/03 04:41:50;;;;;;;4.75;2.40;;;12.50;99.90;;;;;;5074908;28;20094;-67
2021/08/03 04:44:15;;;;;;;6.20;2.90;;;12.50;99.90;;;;;;5074918;28;20499;-66
2021/08/03 04:46:41;;;;;;;3.60;2.50;;;12.40;99.90;;;;;;5075003;28;20044;-66
2021/08/03 04:49:07;;;;;;;7.68;2.65;;;12.40;99.90;;;;;;5074524;28;20190;-66
2021/08/03 04:51:35;;;;;;;4.07;2.60;;;12.50;99.90;;;;;;5074625;28;20044;-66
2021/08/03 04:54:00;;;;;;;5.13;3.17;;;12.50;99.90;;;;;;5074809;28;20075;-66
2021/08/03 04:56:26;;;;;;;4.68;2.47;;;12.60;99.90;;;;;;5074586;28;20472;-66
2021/08/03 04:58:52;;;;;;;5.40;2.78;;;12.70;99.90;;;;;;5074343;28;20447;-66
2021/08/03 05:01:17;;;;;;;4.03;2.63;;;12.70;99.90;;;;;;5074967;28;20102;-66
2021/08/03 05:03:43;;;;;;;4.68;2.42;;;12.70;99.90;;;;;;5074779;28;20124;-67
2021/08/03 05:06:09;;;;;;;4.25;2.78;;;12.80;99.90;;;;;;5073927;28;20064;-67
2021/08/03 05:08:34;;;;;;;3.90;2.78;;;12.90;99.90;;;;;;5073933;28;20093;-66
2021/08/03 05:11:00;;;;;;;3.50;2.55;;;12.90;99.90;;;;;;5074934;28;20387;-67
2021/08/03 05:13:29;;;;;;;3.75;2.67;;;13.00;99.90;;;;;;5074172;28;20041;-66
2021/08/03 05:15:55;;;;;;;5.70;2.67;;;13.00;99.90;;;;;;5074219;28;20036;-67
2021/08/03 05:18:20;;;;;;;4.60;2.30;;;13.10;99.90;;;;;;5074526;28;20491;-67
2021/08/03 05:20:47;;;;;;;3.22;2.35;;;13.20;99.90;;;;;;5073748;28;20067;-66
2021/08/03 05:23:12;;;;;;;4.70;2.30;;;13.30;99.90;;;;;;5074782;28;20427;-66
2021/08/03 05:25:38;;;;;;;5.72;2.85;;;13.40;99.90;;;;;;5073944;28;20036;-66
2021/08/03 05:28:04;;;;;;;3.08;2.28;;;13.50;99.90;;;;;;5074456;28;20116;-66
2021/08/03 05:30:30;;;;;;;4.32;2.30;;;13.50;99.90;;;;;;5072429;28;20111;-66
2021/08/03 05:32:55;;;;;;;3.10;2.05;;;13.60;99.90;;;;;;5073937;28;20075;-66
2021/08/03 05:35:21;;;;;;;4.00;2.30;;;13.70;99.90;;;;;;5074393;28;20068;-66
2021/08/03 05:37:47;;;;;;;3.55;2.53;;;13.70;99.90;;;;;;5074382;28;20061;-66
2021/08/03 05:40:13;;;;;;;3.70;2.05;;;13.70;99.90;;;;;;5073461;28;20105;-66
2021/08/03 05:42:40;;;;;;;3.42;2.17;;;13.80;99.90;;;;;;5074206;28;20044;-67
2021/08/03 05:45:06;;;;;;;3.17;2.38;;;13.90;99.90;;;;;;5074138;28;20037;-67
2021/08/03 05:47:32;;;;;;;5.88;3.10;;;13.90;99.90;;;;;;5073929;28;20036;-67
2021/08/03 05:49:58;;;;;;;4.38;2.63;;;14.00;99.90;;;;;;5073368;28;20119;-67
2021/08/03 05:52:23;;;;;;;4.05;2.70;;;14.00;99.90;;;;;;5073587;28;20394;-67
2021/08/03 05:54:49;;;;;;;3.22;2.33;;;14.10;99.90;;;;;;5073753;28;20543;-67
2021/08/03 05:57:15;;;;;;;6.20;2.60;;;14.20;99.90;;;;;;5073677;28;20032;-67
2021/08/03 05:59:41;;;;;;;5.00;2.60;;;14.20;99.90;;;;;;5073542;28;20040;-67
2021/08/03 06:02:07;;;;;;;5.90;3.03;;;14.30;99.90;;;;;;5073742;28;20040;-67
2021/08/03 06:04:33;;;;;;;4.40;2.38;;;14.40;99.90;;;;;;5074171;28;20040;-67
2021/08/03 06:07:02;;;;;;;8.05;3.10;;;14.40;99.90;;;;;;5073665;28;20040;-67
2021/08/03 06:09:34;;;;;;;4.93;2.72;;;14.50;99.90;;;;;;5073479;28;20060;-67
2021/08/03 06:12:02;;;;;;;6.68;2.95;;;14.50;99.90;;;;;;5073497;28;20047;-67
2021/08/03 06:14:31;;;;;;;6.10;2.65;;;14.60;99.90;;;;;;5073424;28;20066;-67
2021/08/03 06:17:02;;;;;;;3.35;2.42;;;14.80;99.90;;;;;;5073531;28;20124;-67
2021/08/03 06:19:28;;;;;;;7.50;2.75;;;14.90;99.90;;;;;;5073229;28;20037;-67
2021/08/03 06:21:58;;;;;;;3.50;2.58;;;15.20;99.90;;;;;;5073192;28;20037;-67
2021/08/03 06:24:29;;;;;;;5.13;2.30;;;15.80;99.90;;;;;;5073402;28;20036;-67
2021/08/03 06:26:56;;;;;;;3.53;2.15;;;16.00;99.90;;;;;;5073334;28;20082;-67
2021/08/03 06:29:25;;;;;;;5.30;2.05;;;16.10;99.90;;;;;;5072899;28;20033;-67
2021/08/03 06:31:51;;;;;;;2.83;1.65;;;16.20;99.90;;;;;;5073116;28;20041;-68
2021/08/03 06:34:17;;;;;;;3.17;1.65;;;16.20;99.90;;;;;;5073540;28;20040;-67
2021/08/03 06:36:43;;;;;;;5.03;1.70;;;16.20;99.90;;;;;;5073198;28;20042;-68
2021/08/03 06:39:10;;;;;;;4.63;2.03;;;16.30;99.90;;;;;;5072856;28;20037;-68
2021/08/03 06:41:39;;;;;;;5.47;1.80;;;16.30;99.90;;;;;;5073310;28;20101;-68
2021/08/03 06:44:05;;;;;;;2.30;1.92;;;16.30;99.90;;;;;;5073563;28;20134;-68
2021/08/03 06:46:44;;;;;;;3.70;1.90;;;16.30;99.90;;;;;;5072088;28;20029;-68
2021/08/03 06:49:13;;;;;;;4.25;1.52;;;16.30;99.90;;;;;;5072106;28;20437;-67
2021/08/03 06:51:41;;;;;;;3.47;1.42;;;16.30;99.90;;;;;;5073288;28;20098;-68
2021/08/03 06:54:11;;;;;;;3.65;1.80;;;16.40;99.90;;;;;;5073592;28;20078;-68
2021/08/03 06:56:52;;;;;;;5.60;2.10;;;16.30;99.90;;;;;;5073430;28;20040;-68
2021/08/03 06:59:25;;;;;;;5.43;1.90;;;16.40;99.90;;;;;;5072979;28;20036;-68
2021/08/03 07:02:06;;;;;;;3.75;1.60;;;16.40;99.90;;;;;;5073140;28;20123;-68
2021/08/03 07:04:49;;;;;;;4.05;1.70;;;16.30;99.90;;;;;;5071697;28;20488;-68
2021/08/03 07:07:19;;;;;;;7.18;1.75;;;16.40;99.90;;;;;;5073399;28;20037;-68
2021/08/03 07:09:44;;;;;;;3.88;1.63;;;17.10;99.90;;;;;;5072696;28;20078;-68
2021/08/03 07:12:12;;;;;;;1.52;1.23;;;17.50;99.90;;;;;;5072765;28;20480;-68
2021/08/03 07:14:39;;;;;;;3.67;1.23;;;17.90;99.90;;;;;;5072709;28;20491;-68
2021/08/03 07:17:06;;;;;;;4.32;1.35;;;18.30;99.90;;;;;;5073067;28;20041;-68
2021/08/03 07:19:33;;;;;;;3.60;1.30;;;18.70;99.90;;;;;;5072359;28;20035;-68
2021/08/03 07:22:00;;;;;;;4.40;0.90;;;18.90;99.90;;;;;;5073169;28;20044;-68
2021/08/03 07:24:28;;;;;;;3.25;0.73;;;19.10;99.90;;;;;;5072687;28;20032;-68
2021/08/03 07:26:54;;;;;;;3.65;1.10;;;19.40;99.90;;;;;;5072689;28;20041;-68
2021/08/03 07:29:19;;;;;;;1.98;1.10;;;19.60;99.90;;;;;;5073643;28;20048;-68
2021/08/03 07:31:46;;;;;;;2.55;0.85;;;19.70;99.90;;;;;;5076611;28;20047;-68
2021/08/03 07:34:12;;;;;;;1.83;0.82;;;20.00;99.90;;;;;;5076701;28;20037;-68
2021/08/03 07:36:38;;;;;;;2.67;0.80;;;20.00;99.90;;;;;;5076422;28;20044;-68
2021/08/03 07:39:06;;;;;;;2.10;1.00;;;20.10;99.90;;;;;;5075665;28;20040;-68
2021/08/03 07:41:33;;;;;;;2.33;0.60;;;20.40;99.90;;;;;;5076018;28;20036;-68
2021/08/03 07:43:58;;;;;;;2.40;0.90;;;20.50;99.90;;;;;;5076239;28;20032;-68
2021/08/03 07:46:24;;;;;;;4.10;0.52;;;20.50;99.90;;;;;;5076309;28;20041;-68
2021/08/03 07:48:50;;;;;;;4.28;0.70;;;20.70;99.90;;;;;;5076181;28;20033;-68
2021/08/03 07:51:20;;;;;;;1.38;0.70;;;20.80;99.90;;;;;;5075790;28;20400;-68
2021/08/03 07:53:47;;;;;;;1.55;0.70;;;20.90;99.90;;;;;;5075823;28;20129;-68
2021/08/03 07:56:14;;;;;;;2.38;1.00;;;20.80;99.90;;;;;;5076163;28;20448;-68
2021/08/03 07:58:40;;;;;;;1.30;0.40;;;20.90;99.90;;;;;;5075721;28;20036;-68
2021/08/03 08:01:07;;;;;;;3.05;0.65;;;21.10;99.90;;;;;;5076039;28;20041;-68
2021/08/03 08:03:33;;;;;;;1.67;0.90;;;21.40;99.90;;;;;;5075623;28;20098;-68
2021/08/03 08:06:00;;;;;;;3.05;0.75;;;21.50;99.90;;;;;;5075546;28;20040;-68
2021/08/03 08:08:26;;;;;;;2.60;0.77;;;21.90;99.90;;;;;;5075636;28;20068;-68
2021/08/03 08:10:53;;;;;;;1.67;0.90;;;22.00;99.90;;;;;;5075464;28;20123;-68
2021/08/03 08:13:18;;;;;;;2.10;0.80;;;22.00;99.90;;;;;;5075707;28;20036;-68
2021/08/03 08:15:44;;;;;;;1.23;0.70;;;21.40;99.80;;;;;;5076080;28;20086;-68
2021/08/03 08:18:10;;;;;;;1.42;0.82;;;21.00;99.90;;;;;;5075902;28;20036;-69
2021/08/03 08:20:42;;;;;;;1.70;0.47;;;20.50;99.90;;;;;;5074944;28;20036;-68
2021/08/03 08:23:09;;;;;;;1.30;0.55;;;20.20;99.90;;;;;;5075334;28;20037;-68
2021/08/03 08:25:36;;;;;;;1.73;0.50;;;19.40;99.90;;;;;;5075636;28;20036;-68
2021/08/03 08:28:02;;;;;;;0.85;0.50;;;19.40;99.90;;;;;;5075774;28;20048;-68
2021/08/03 08:30:27;;;;;;;3.20;0.95;;;19.40;99.90;;;;;;5074764;28;20407;-69
2021/08/03 08:32:53;;;;;;;4.38;0.90;;;19.30;99.90;;;;;;5075200;28;20063;-68
2021/08/03 08:35:20;;;;;;;1.42;0.80;;;19.20;99.90;;;;;;5075675;28;20060;-68
2021/08/03 08:37:45;;;;;;;1.23;0.60;;;19.10;99.90;;;;;;5075321;28;20094;-68
2021/08/03 08:40:12;;;;;;;2.00;0.82;;;19.20;99.90;;;;;;5074380;28;20040;-68
2021/08/03 08:42:38;;;;;;;2.90;0.55;;;19.10;99.90;;;;;;5074732;28;20048;-68
2021/08/03 08:45:05;;;;;;;2.05;0.50;;;18.90;99.90;;;;;;5074972;28;20036;-68
2021/08/03 08:47:32;;;;;;;1.92;0.55;;;18.80;99.90;;;;;;5075021;28;20036;-68
2021/08/03 08:50:05;;;;;;;2.05;0.55;;;18.80;99.90;;;;;;5074581;28;20044;-68
2021/08/03 08:52:35;;;;;;;3.35;0.45;;;19.10;99.90;;;;;;5074954;28;20059;-68
2021/08/03 08:55:02;;;;;;;0.82;0.47;;;19.60;99.90;;;;;;5074646;28;20524;-68
2021/08/03 08:57:28;;;;;;;2.40;0.65;;;20.00;99.90;;;;;;5075170;28;20127;-68
2021/08/03 08:59:54;;;;;;;1.13;0.60;;;20.00;99.90;;;;;;5074357;28;20094;-68
2021/08/03 09:02:38;;;;;;;3.83;1.13;;;19.80;99.90;;;;;;5074385;28;20040;-68
2021/08/03 09:05:04;;;;;;;5.03;3.35;;;19.70;99.90;;;;;;5074713;28;20123;-68
2021/08/03 09:07:30;;;;;;;1.95;0.90;;;19.60;99.90;;;;;;5074709;28;20064;-68
2021/08/03 09:09:56;;;;;;;4.00;0.73;;;19.40;99.90;;;;;;5074225;28;20075;-68
2021/08/03 09:12:33;;;;;;;2.55;0.93;;;19.20;99.90;;;;;;5074515;28;20041;-68
2021/08/03 09:14:59;;;;;;;1.25;0.60;;;18.90;99.90;;;;;;5074893;28;20044;-68
2021/08/03 09:17:28;;;;;;;3.72;0.70;;;18.90;99.90;;;;;;5074787;28;20047;-68
2021/08/03 09:19:53;;;;;;;0.70;0.60;;;19.00;99.90;;;;;;5074206;28;20041;-68
2021/08/03 09:22:24;;;;;;;1.13;0.60;;;19.10;99.90;;;;;;5074406;28;20037;-68
2021/08/03 09:25:07;;;;;;;2.08;0.60;;;19.20;99.90;;;;;;5074547;28;20052;-68
2021/08/03 09:27:41;;;;;;;2.20;0.65;;;19.50;99.90;;;;;;5074332;28;20044;-69
2021/08/03 09:30:28;;;;;;;2.60;0.63;;;19.70;99.90;;;;;;5073979;28;20032;-69
2021/08/03 09:32:54;;;;;;;2.67;1.25;;;19.70;99.10;;;;;;5073796;28;20503;-69
2021/08/03 09:35:21;;;;;;;1.00;0.50;;;19.60;98.40;;;;;;5074115;28;20090;-69
2021/08/03 09:37:48;;;;;;;1.15;0.40;;;19.60;98.00;;;;;;5074115;28;20071;-70
2021/08/03 09:40:16;;;;;;;1.27;0.73;;;19.80;97.50;;;;;;5073537;28;20311;-69
2021/08/03 09:42:42;;;;;;;1.40;0.57;;;20.20;97.20;;;;;;5074043;28;20512;-69
2021/08/03 09:45:08;;;;;;;1.02;0.50;;;20.40;96.20;;;;;;5074164;28;20090;-69
2021/08/03 09:47:38;;;;;;;1.63;0.70;;;20.30;96.10;;;;;;5074208;28;20044;-69
2021/08/03 09:50:08;;;;;;;2.05;1.00;;;20.60;94.90;;;;;;5072268;28;20082;-69
2021/08/03 09:52:37;;;;;;;1.52;1.25;;;20.90;96.60;;;;;;5073104;28;20131;-69
2021/08/03 09:55:25;;;;;;;2.05;0.80;;;21.10;97.50;;;;;;5072368;28;20029;-69
2021/08/03 09:58:05;;;;;;;3.08;0.68;;;21.00;94.20;;;;;;5073956;28;20036;-69
2021/08/03 10:00:35;;;;;;;2.40;0.70;;;21.10;92.80;;;;;;5073084;28;20040;-69
2021/08/03 10:03:03;;;;;;;1.23;0.60;;;21.00;92.30;;;;;;5073649;28;20473;-69
2021/08/03 10:05:30;;;;;;;1.45;0.50;;;20.90;92.80;;;;;;5073594;28;20037;-69
2021/08/03 10:07:56;;;;;;;2.08;0.63;;;20.80;92.40;;;;;;5073707;28;20372;-69
2021/08/03 10:10:22;;;;;;;0.68;0.50;;;20.70;92.40;;;;;;5073048;28;20127;-69
2021/08/03 10:12:48;;;;;;;1.27;0.55;;;20.60;93.30;;;;;;5073424;28;20036;-69
2021/08/03 10:15:14;;;;;;;3.00;0.80;;;20.50;92.40;;;;;;5073468;28;20039;-69
2021/08/03 10:17:41;;;;;;;1.75;1.33;;;20.40;90.80;;;;;;5073527;28;20044;-69
2021/08/03 10:20:13;;;;;;;2.70;1.10;;;20.30;90.70;;;;;;5073083;28;20044;-69
2021/08/03 10:22:55;;;;;;;1.88;0.80;;;20.60;91.00;;;;;;5073482;28;20060;-69
2021/08/03 10:25:29;;;;;;;2.17;0.60;;;20.60;89.50;;;;;;5073936;28;20048;-69
2021/08/03 10:27:54;;;;;;;2.47;0.85;;;20.70;90.60;;;;;;5073926;28;20036;-69
2021/08/03 10:30:29;;;;;;;3.05;1.30;;;21.00;91.90;;;;;;5073140;28;20051;-69
2021/08/03 10:33:11;;;;;;;1.70;0.60;;;21.20;91.40;;;;;;5073069;28;20090;-69
2021/08/03 10:35:49;;;;;;;1.42;0.70;;;21.30;90.90;;;;;;5073754;28;20530;-69
2021/08/03 10:38:18;;;;;;;1.70;0.60;;;21.40;90.20;;;;;;5073060;28;20036;-69
2021/08/03 10:40:44;;;;;;;2.83;1.00;;;21.40;85.70;;;;;;5073010;28;20055;-69
2021/08/03 10:43:26;;;;;;;1.75;0.80;;;21.40;87.60;;;;;;5073047;28;20426;-69
2021/08/03 10:46:07;;;;;;;1.05;0.65;;;21.50;81.40;;;;;;5073769;28;20468;-69
2021/08/03 10:48:38;;;;;;;2.95;0.82;;;21.60;93.00;;;;;;5073429;28;20047;-70
2021/08/03 10:51:13;;;;;;;1.48;0.82;;;21.60;96.40;;;;;;5073004;28;20040;-69
2021/08/03 10:53:51;;;;;;;3.50;1.80;;;21.40;95.60;;;;;;5073036;28;20115;-69
2021/08/03 10:56:17;;;;;;;2.35;1.25;;;21.20;96.00;;;;;;5072952;28;20033;-69
2021/08/03 10:58:43;;;;;;;3.22;0.80;;;21.00;95.90;;;;;;5073203;28;20052;-69
2021/08/03 11:01:08;;;;;;;2.92;0.80;;;20.50;94.20;;;;;;5073194;28;20477;-69
2021/08/03 11:03:34;;;;;;;4.80;2.60;;;20.20;95.40;;;;;;5073193;28;20405;-69
2021/08/03 11:06:05;;;;;;;3.38;1.52;;;20.70;98.30;;;;;;5076688;28;20119;-69
2021/08/03 11:08:32;;;;;;;2.45;1.20;;;20.70;99.00;;;;;;5076628;28;20038;-69
2021/08/03 11:11:20;;;;;;;3.05;1.00;;;20.90;97.00;;;;;;5077124;28;20120;-69
2021/08/03 11:13:49;;;;;;;3.28;1.60;;;20.80;95.00;;;;;;5077152;28;20503;-69
2021/08/03 11:16:21;;;;;;;1.38;0.85;;;21.10;97.40;;;;;;5077143;28;20115;-69
2021/08/03 11:18:50;;;;;;;3.22;2.00;;;20.60;96.00;;;;;;5076113;28;20036;-69
2021/08/03 11:21:17;;;;;;;2.10;1.73;;;20.80;98.30;;;;;;5076524;28;20048;-68
2021/08/03 11:24:05;;;;;;;1.98;0.90;;;20.90;98.20;;;;;;5076433;28;20062;-68
2021/08/03 11:26:38;;;;;;;1.50;0.93;;;20.70;95.70;;;;;;5076417;28;20036;-68
2021/08/03 11:29:14;;;;;;;3.70;1.10;;;20.80;91.70;;;;;;5076185;28;20133;-68
2021/08/03 11:32:07;;;;;;;1.88;0.90;;;20.80;93.00;;;;;;5076762;28;20045;-68
2021/08/03 11:34:39;;;;;;;2.78;1.45;;;20.70;95.90;;;;;;5076176;28;20056;-68
2021/08/03 11:37:20;;;;;;;2.30;1.33;;;21.00;95.60;;;;;;5076596;28;20064;-68
2021/08/03 11:39:56;;;;;;;2.00;0.85;;;21.00;94.20;;;;;;5075850;28;20040;-68
2021/08/03 11:42:33;;;;;;;1.85;0.80;;;20.70;94.80;;;;;;5076702;28;20116;-68
2021/08/03 11:45:11;;;;;;;1.27;0.70;;;20.40;94.30;;;;;;5076444;28;20063;-68
2021/08/03 11:47:52;;;;;;;3.60;1.08;;;20.40;93.40;;;;;;5076435;28;20381;-68
2021/08/03 11:50:33;;;;;;;2.92;0.88;;;20.10;92.60;;;;;;5076104;28;20414;-68
2021/08/03 11:53:16;;;;;;;2.17;1.30;;;20.00;95.30;;;;;;5076021;28;20466;-68
2021/08/03 11:55:54;;;;;;;2.05;0.90;;;20.10;96.70;;;;;;5076143;28;20123;-68
2021/08/03 11:58:28;;;;;;;2.70;0.80;;;20.20;96.60;;;;;;5076388;28;20475;-67
2021/08/03 12:00:59;;;;;;;2.50;1.10;;;19.90;96.10;;;;;;5075806;28;20037;-67
2021/08/03 12:03:34;;;;;;;1.80;0.82;;;20.20;95.30;;;;;;5075583;28;20511;-67
2021/08/03 12:06:02;;;;;;;2.90;0.90;;;19.90;93.80;;;;;;5076075;28;20048;-67
2021/08/03 12:08:39;;;;;;;3.60;1.00;;;20.10;93.30;;;;;;5075512;28;20036;-67
2021/08/03 12:11:05;;;;;;;2.47;0.90;;;20.10;96.10;;;;;;5075905;28;20040;-67
2021/08/03 12:13:37;;;;;;;2.03;0.90;;;19.80;95.40;;;;;;5075407;28;20124;-67
2021/08/03 12:16:05;;;;;;;4.05;1.40;;;19.90;96.10;;;;;;5075673;28;20036;-67
2021/08/03 12:18:43;;;;;;;2.38;0.95;;;19.90;98.80;;;;;;5075249;28;20109;-68
2021/08/03 12:21:17;;;;;;;1.83;0.82;;;19.90;97.90;;;;;;5075367;28;20040;-67
2021/08/03 12:23:43;;;;;;;2.97;1.38;;;20.10;98.70;;;;;;5075657;28;20047;-67
2021/08/03 12:26:14;;;;;;;2.53;0.90;;;20.00;95.90;;;;;;5075231;28;20037;-67
2021/08/03 12:28:44;;;;;;;1.77;0.88;;;20.00;96.10;;;;;;5074834;28;20446;-67
2021/08/03 12:31:15;;;;;;;2.65;1.05;;;20.00;95.50;;;;;;5075129;28;20090;-68
2021/08/03 12:33:40;;;;;;;1.58;0.90;;;20.00;96.40;;;;;;5075477;28;20044;-68
2021/08/03 12:36:09;;;;;;;1.48;0.88;;;19.80;96.10;;;;;;5075186;28;20036;-66
2021/08/03 12:38:36;;;;;;;2.83;0.77;;;19.90;95.10;;;;;;5074849;28;20032;-68
2021/08/03 12:41:21;;;;;;;1.63;0.90;;;19.50;95.10;;;;;;5075027;28;20052;-67
2021/08/03 12:43:47;;;;;;;2.55;1.60;;;19.70;96.90;;;;;;5074868;28;20111;-67
2021/08/03 12:46:14;;;;;;;3.25;0.90;;;19.70;96.70;;;;;;5075145;28;20040;-67
2021/08/03 12:48:50;;;;;;;4.25;1.13;;;19.80;95.10;;;;;;5075132;28;20037;-67
2021/08/03 12:51:24;;;;;;;3.90;0.82;;;19.60;95.90;;;;;;5073511;28;20042;-67
2021/08/03 12:53:50;;;;;;;2.90;1.60;;;19.50;96.70;;;;;;5076013;28;20098;-67
2021/08/03 12:56:17;;;;;;;3.65;1.50;;;19.60;99.40;;;;;;5093623;28;20439;-67
2021/08/03 12:58:47;;;;;;;2.92;0.98;;;19.60;97.90;;;;;;5094389;28;20055;-67
2021/08/03 13:01:16;;;;;;;2.90;1.10;;;19.80;96.40;;;;;;5094803;28;20124;-68
2021/08/03 13:03:42;;;;;;;4.68;1.88;;;19.90;95.50;;;;;;5094814;28;20094;-67